In Rescue
 
Open Full Screen Window  High Contrast Mode
May 25, 2022 8:53 PM CDT
Present Weather: Light Rain
Weather Information
Wind Direction
  ---
Wind Speed
  00 kt (0 mph)
Wind Gust
  00 kt (0 mph)
Altimeter
30.04 in
Visibility
10 SM
Temperature
08° C
46° F
Dewpoint
07° C
45° F
Humidity
93%
1hr Rain Fall
00.01 in.
24hr Rain Fall
00.01 in.
Sky Condition
Overcast @ 5,000 ft
Scattered @ 2,700 ft
VFR

METAR KCDD 260153Z AUTO 00000KT 10SM -RA SCT027 OVC050 08/07 A3004 RMK AO2 P0001

FAA Disclaimer: The data displayed is for advisory purposes only and is not to be used for flight planning or operations.